Time;durP1;ratioP1;P1;durP2;ratioP2;P2;SDS_P1;SDS_P2;PMS_P1;PMS_P2;Temp;Humidity;BMP_temperature;BMP_pressure;BME280_temperature;BME280_humidity;BME280_pressure;Samples;Min_cycle;Max_cycle;Signal;HPM_P1;HPM_P2
2020/12/06 00:00:14;;;;;;;77.53;35.00;;;;;;;;;;4975178;28;20066;-80
2020/12/06 00:02:40;;;;;;;75.95;33.65;;;;;;;;;;4992758;28;20097;-78
2020/12/06 00:05:08;;;;;;;78.70;34.75;;;;;;;;;;4991939;28;20104;-78
2020/12/06 00:07:35;;;;;;;80.28;35.50;;;;;;;;;;4992331;28;20043;-79
2020/12/06 00:10:04;;;;;;;78.03;36.78;;;;;;;;;;4993949;28;20053;-79
2020/12/06 00:12:34;;;;;;;75.80;34.28;;;;;;;;;;4994811;28;20125;-78
2020/12/06 00:15:00;;;;;;;81.32;35.70;;;;;;;;;;4993212;28;20049;-79
2020/12/06 00:17:26;;;;;;;76.75;36.50;;;;;;;;;;4976618;28;20055;-79
2020/12/06 00:19:52;;;;;;;81.85;36.03;;;;;;;;;;4979258;28;20049;-78
2020/12/06 00:22:18;;;;;;;73.65;35.58;;;;;;;;;;4987303;28;20038;-77
2020/12/06 00:24:47;;;;;;;78.90;36.60;;;;;;;;;;4988739;28;20034;-81
2020/12/06 00:27:13;;;;;;;84.05;36.95;;;;;;;;;;4984046;28;20066;-78
2020/12/06 00:29:40;;;;;;;83.18;36.47;;;;;;;;;;4969234;28;20573;-79
2020/12/06 00:32:08;;;;;;;77.65;35.95;;;;;;;;;;4977744;28;20108;-80
2020/12/06 00:34:35;;;;;;;83.90;35.92;;;;;;;;;;4976025;28;20047;-77
2020/12/06 00:37:02;;;;;;;89.03;35.75;;;;;;;;;;4993184;28;20581;-79
2020/12/06 00:39:29;;;;;;;87.10;38.05;;;;;;;;;;4976453;28;20042;-78
2020/12/06 00:41:56;;;;;;;76.43;33.95;;;;;;;;;;4976034;28;20054;-80
2020/12/06 00:44:22;;;;;;;86.88;39.05;;;;;;;;;;4975555;28;20074;-78
2020/12/06 00:46:48;;;;;;;79.43;35.47;;;;;;;;;;4973671;28;20070;-78
2020/12/06 00:49:15;;;;;;;84.70;36.15;;;;;;;;;;4992270;28;20039;-78
2020/12/06 00:51:42;;;;;;;82.70;35.72;;;;;;;;;;4974965;28;20407;-78
2020/12/06 00:54:08;;;;;;;79.80;36.00;;;;;;;;;;4991646;28;20134;-78
2020/12/06 00:56:34;;;;;;;81.00;35.28;;;;;;;;;;4975232;28;20132;-78
2020/12/06 00:59:02;;;;;;;82.43;35.72;;;;;;;;;;4984373;28;20079;-79
2020/12/06 01:01:29;;;;;;;76.28;33.63;;;;;;;;;;4969652;28;20461;-79
2020/12/06 01:03:56;;;;;;;77.55;35.05;;;;;;;;;;4963779;28;20177;-78
2020/12/06 01:06:23;;;;;;;74.95;34.75;;;;;;;;;;4962299;28;20046;-77
2020/12/06 01:08:51;;;;;;;82.00;34.78;;;;;;;;;;4976909;28;20133;-78
2020/12/06 01:11:17;;;;;;;76.60;35.30;;;;;;;;;;4962768;28;20053;-78
2020/12/06 01:13:44;;;;;;;77.00;35.08;;;;;;;;;;4976704;28;20084;-78
2020/12/06 01:16:16;;;;;;;84.22;37.10;;;;;;;;;;4993425;28;20493;-78
2020/12/06 01:18:42;;;;;;;75.45;34.47;;;;;;;;;;4977929;28;20042;-78
2020/12/06 01:21:10;;;;;;;81.22;35.50;;;;;;;;;;4995487;28;20110;-78
2020/12/06 01:23:36;;;;;;;90.43;37.08;;;;;;;;;;4977711;28;20046;-80
2020/12/06 01:26:03;;;;;;;83.47;37.40;;;;;;;;;;4960879;28;20043;-79
2020/12/06 01:28:30;;;;;;;80.70;35.97;;;;;;;;;;4994140;28;20085;-79
2020/12/06 01:30:57;;;;;;;79.20;34.90;;;;;;;;;;4993035;28;20101;-77
2020/12/06 01:33:24;;;;;;;82.32;35.75;;;;;;;;;;5003078;28;20039;-79
2020/12/06 01:35:52;;;;;;;77.20;33.83;;;;;;;;;;4973738;28;20050;-79
2020/12/06 01:38:18;;;;;;;82.05;37.03;;;;;;;;;;4997442;28;20096;-79
2020/12/06 01:40:46;;;;;;;76.30;34.20;;;;;;;;;;4981136;28;20046;-79
2020/12/06 01:43:13;;;;;;;83.78;36.45;;;;;;;;;;4981826;28;20046;-80
2020/12/06 01:45:40;;;;;;;78.05;35.97;;;;;;;;;;4971663;28;20046;-77
2020/12/06 01:48:07;;;;;;;87.78;36.90;;;;;;;;;;5006781;28;20042;-80
2020/12/06 01:50:34;;;;;;;83.85;36.45;;;;;;;;;;4980045;28;20134;-79
2020/12/06 01:53:07;;;;;;;78.93;35.17;;;;;;;;;;4979805;28;20038;-78
2020/12/06 01:55:34;;;;;;;85.28;37.20;;;;;;;;;;4995947;28;20124;-80
2020/12/06 01:58:08;;;;;;;84.20;35.90;;;;;;;;;;4995575;28;20042;-79
2020/12/06 02:00:34;;;;;;;87.45;36.95;;;;;;;;;;4962321;28;20088;-79
2020/12/06 02:03:01;;;;;;;79.72;35.00;;;;;;;;;;4983531;28;20045;-79
2020/12/06 02:05:27;;;;;;;81.57;34.97;;;;;;;;;;5000179;28;20081;-79
2020/12/06 02:07:57;;;;;;;73.63;33.30;;;;;;;;;;5012799;28;20034;-79
2020/12/06 02:10:27;;;;;;;79.85;35.42;;;;;;;;;;4998268;28;20057;-79
2020/12/06 02:12:54;;;;;;;81.32;35.40;;;;;;;;;;4994510;28;20041;-79
2020/12/06 02:15:22;;;;;;;86.53;36.80;;;;;;;;;;4993843;28;20054;-81
2020/12/06 02:17:49;;;;;;;79.55;34.53;;;;;;;;;;4981803;28;20050;-79
2020/12/06 02:20:15;;;;;;;75.03;34.28;;;;;;;;;;4977798;28;20057;-78
2020/12/06 02:22:41;;;;;;;79.88;34.50;;;;;;;;;;4977827;28;20042;-79
2020/12/06 02:25:07;;;;;;;72.32;34.50;;;;;;;;;;4977374;28;20050;-79
2020/12/06 02:27:34;;;;;;;81.47;35.15;;;;;;;;;;4994225;28;20053;-79
2020/12/06 02:30:00;;;;;;;76.78;34.05;;;;;;;;;;4977176;28;20046;-79
2020/12/06 02:32:26;;;;;;;73.80;33.00;;;;;;;;;;4960031;28;20053;-78
2020/12/06 02:34:52;;;;;;;70.32;32.17;;;;;;;;;;4976869;28;20045;-78
2020/12/06 02:37:19;;;;;;;76.88;32.63;;;;;;;;;;4994232;28;20046;-78
2020/12/06 02:39:45;;;;;;;77.25;34.17;;;;;;;;;;4995102;28;20080;-79
2020/12/06 02:42:11;;;;;;;77.15;34.75;;;;;;;;;;4996011;28;20047;-80
2020/12/06 02:44:38;;;;;;;75.68;33.42;;;;;;;;;;4979658;28;20046;-79
2020/12/06 02:47:04;;;;;;;77.75;33.80;;;;;;;;;;4979516;28;20039;-80
2020/12/06 02:49:30;;;;;;;72.82;32.60;;;;;;;;;;4998005;28;20038;-78
2020/12/06 02:51:58;;;;;;;73.45;33.70;;;;;;;;;;4960020;28;20171;-78
2020/12/06 02:54:27;;;;;;;72.85;31.70;;;;;;;;;;4975963;28;20050;-78
2020/12/06 02:56:53;;;;;;;64.93;29.60;;;;;;;;;;4993634;28;20038;-79
2020/12/06 02:59:20;;;;;;;72.03;30.95;;;;;;;;;;4975634;28;20562;-78
2020/12/06 03:01:47;;;;;;;67.20;30.23;;;;;;;;;;4974002;28;20078;-78
2020/12/06 03:04:14;;;;;;;73.90;31.27;;;;;;;;;;4959091;28;20149;-78
2020/12/06 03:06:43;;;;;;;83.68;34.80;;;;;;;;;;4974400;28;20047;-78
2020/12/06 03:09:09;;;;;;;85.22;35.80;;;;;;;;;;4958870;28;20089;-78
2020/12/06 03:11:36;;;;;;;92.70;40.30;;;;;;;;;;4959957;28;20046;-80
2020/12/06 03:14:03;;;;;;;106.90;41.00;;;;;;;;;;4974940;28;20047;-78
2020/12/06 03:16:29;;;;;;;127.43;47.65;;;;;;;;;;4974809;28;20387;-79
2020/12/06 03:18:57;;;;;;;132.55;48.33;;;;;;;;;;4992561;28;20057;-78
2020/12/06 03:21:26;;;;;;;125.47;46.58;;;;;;;;;;4959476;28;20533;-80
2020/12/06 03:24:30;;;;;;;119.47;44.88;;;;;;;;;;5015259;23;20557;-79
2020/12/06 03:27:06;;;;;;;103.47;41.95;;;;;;;;;;4943665;28;20054;-79
2020/12/06 03:33:25;;;;;;;110.93;42.15;;;;;;;;;;4897322;29;20048;-80
2020/12/06 03:36:03;;;;;;;109.38;43.20;;;;;;;;;;4896019;29;20059;-79
2020/12/06 03:38:52;;;;;;;100.47;42.35;;;;;;;;;;4896548;29;20548;-80
2020/12/06 03:41:46;;;;;;;97.28;40.72;;;;;;;;;;4898096;29;20044;-80
2020/12/06 03:44:52;;;;;;;96.82;40.33;;;;;;;;;;4913149;29;20048;-79
2020/12/06 03:48:15;;;;;;;99.80;41.17;;;;;;;;;;4912077;29;20052;-79
2020/12/06 03:51:04;;;;;;;112.38;43.83;;;;;;;;;;4914284;29;20142;-79
2020/12/06 03:53:48;;;;;;;109.22;43.75;;;;;;;;;;4900063;29;20886;-80
2020/12/06 03:56:50;;;;;;;102.03;40.25;;;;;;;;;;4910742;29;20056;-78
2020/12/06 03:59:51;;;;;;;102.45;41.80;;;;;;;;;;4906654;29;20052;-77
2020/12/06 04:02:33;;;;;;;105.80;42.00;;;;;;;;;;4920175;29;20051;-77
2020/12/06 04:05:46;;;;;;;100.45;41.88;;;;;;;;;;4914580;29;20063;-78
2020/12/06 04:08:24;;;;;;;100.57;40.15;;;;;;;;;;4994911;28;20533;-78
2020/12/06 04:11:05;;;;;;;96.65;39.78;;;;;;;;;;4995503;28;20053;-77
2020/12/06 04:13:47;;;;;;;94.68;39.10;;;;;;;;;;4991834;28;20046;-78
2020/12/06 04:16:52;;;;;;;91.80;37.42;;;;;;;;;;4996402;28;20049;-77
2020/12/06 04:19:35;;;;;;;81.53;36.78;;;;;;;;;;4991237;28;20046;-77
2020/12/06 04:22:07;;;;;;;80.63;34.90;;;;;;;;;;5016788;28;20053;-77
2020/12/06 04:24:53;;;;;;;81.97;37.33;;;;;;;;;;4968235;28;20101;-77
2020/12/06 04:27:29;;;;;;;90.80;37.42;;;;;;;;;;4973361;28;20529;-78
2020/12/06 04:30:20;;;;;;;84.70;36.67;;;;;;;;;;4976182;28;20049;-76
2020/12/06 04:33:12;;;;;;;84.18;36.92;;;;;;;;;;4983840;28;20054;-78
2020/12/06 04:35:53;;;;;;;76.43;34.50;;;;;;;;;;5014102;28;20489;-77
2020/12/06 04:38:34;;;;;;;79.57;35.85;;;;;;;;;;4998038;28;20265;-78
2020/12/06 04:41:16;;;;;;;74.20;34.13;;;;;;;;;;4983623;28;20077;-76
2020/12/06 04:43:50;;;;;;;79.97;33.97;;;;;;;;;;4981028;28;20069;-78
2020/12/06 04:46:35;;;;;;;76.53;33.97;;;;;;;;;;4981103;28;20081;-78
2020/12/06 04:52:56;;;;;;;88.03;36.70;;;;;;;;;;4936183;28;20623;-77
2020/12/06 04:55:56;;;;;;;82.65;38.17;;;;;;;;;;4953937;28;20057;-78
2020/12/06 04:58:40;;;;;;;77.47;33.83;;;;;;;;;;4998959;28;20505;-78
2020/12/06 05:01:18;;;;;;;76.60;35.75;;;;;;;;;;4992739;28;20133;-77
2020/12/06 05:04:03;;;;;;;83.47;36.95;;;;;;;;;;4919038;29;20159;-77
2020/12/06 05:06:46;;;;;;;84.63;36.15;;;;;;;;;;4932336;29;20043;-77
2020/12/06 05:09:36;;;;;;;81.30;37.13;;;;;;;;;;4918961;29;20071;-77
2020/12/06 05:12:33;;;;;;;75.97;35.30;;;;;;;;;;4932248;29;20053;-77
2020/12/06 05:15:02;;;;;;;85.45;37.40;;;;;;;;;;4932636;29;20480;-77
2020/12/06 05:17:28;;;;;;;84.18;36.42;;;;;;;;;;4916178;29;20051;-78
2020/12/06 05:20:30;;;;;;;81.22;35.42;;;;;;;;;;4933482;29;20063;-77
2020/12/06 05:23:24;;;;;;;;;;;;;;;;;;;;;
2020/12/06 05:26:10;;;;;;;70.15;32.92;;;;;;;;;;4935395;29;20578;-77
2020/12/06 05:28:48;;;;;;;;;;;;;;;;;;;;;
2020/12/06 05:31:27;;;;;;;74.40;34.15;;;;;;;;;;4936247;29;20051;-79
2020/12/06 05:37:12;;;;;;;71.78;32.92;;;;;;;;;;5013013;28;20453;-78
2020/12/06 05:40:30;;;;;;;71.53;33.53;;;;;;;;;;5012127;28;20038;-79
2020/12/06 05:43:28;;;;;;;;;;;;;;;;;;;;;
2020/12/06 05:46:13;;;;;;;69.72;32.03;;;;;;;;;;5011351;28;20042;-80
2020/12/06 05:48:52;;;;;;;65.43;31.95;;;;;;;;;;4998827;28;20498;-78
2020/12/06 05:52:20;;;;;;;70.13;32.30;;;;;;;;;;4991489;28;20042;-79
2020/12/06 05:55:15;;;;;;;64.40;30.60;;;;;;;;;;4972596;28;20042;-78
2020/12/06 05:58:16;;;;;;;73.82;33.33;;;;;;;;;;5004199;28;20126;-78
2020/12/06 06:01:22;;;;;;;;;;;;;;;;;;;;;
2020/12/06 06:04:24;;;;;;;78.65;35.42;;;;;;;;;;4995865;28;20046;-79
2020/12/06 06:07:26;;;;;;;79.43;35.30;;;;;;;;;;4982600;28;20519;-80
2020/12/06 06:10:46;;;;;;;78.00;36.28;;;;;;;;;;4999987;28;20050;-80
2020/12/06 06:13:32;;;;;;;86.65;35.92;;;;;;;;;;5010769;28;20248;-79
2020/12/06 06:16:22;;;;;;;89.93;38.58;;;;;;;;;;4990784;28;20525;-79
2020/12/06 06:19:24;;;;;;;86.93;37.83;;;;;;;;;;5000367;28;20514;-79
2020/12/06 06:22:16;;;;;;;82.55;37.22;;;;;;;;;;5013455;28;20049;-80
2020/12/06 06:24:57;;;;;;;79.43;36.08;;;;;;;;;;4995757;28;20050;-80
2020/12/06 06:27:43;;;;;;;80.70;36.78;;;;;;;;;;4995662;28;20052;-80
2020/12/06 06:30:09;;;;;;;83.63;38.33;;;;;;;;;;5010790;28;20133;-78
2020/12/06 06:32:47;;;;;;;90.10;39.13;;;;;;;;;;5000206;28;20046;-78
2020/12/06 06:35:22;;;;;;;94.82;39.90;;;;;;;;;;5018254;28;20509;-79
2020/12/06 06:38:06;;;;;;;104.22;43.60;;;;;;;;;;5018921;28;20045;-80
2020/12/06 06:41:12;;;;;;;96.82;42.95;;;;;;;;;;5013320;28;20105;-79
2020/12/06 06:43:48;;;;;;;89.13;38.92;;;;;;;;;;5001231;28;20058;-79
2020/12/06 06:46:38;;;;;;;87.18;38.72;;;;;;;;;;4985821;28;20129;-78
2020/12/06 06:49:29;;;;;;;83.90;38.28;;;;;;;;;;4974604;28;20042;-79
2020/12/06 06:52:19;;;;;;;78.13;36.85;;;;;;;;;;4946096;28;20061;-78
2020/12/06 06:55:48;;;;;;;79.60;36.25;;;;;;;;;;4951951;28;20183;-80
2020/12/06 06:58:44;;;;;;;75.60;35.60;;;;;;;;;;4965243;28;20109;-79
2020/12/06 07:02:15;;;;;;;80.30;35.33;;;;;;;;;;4898377;29;20052;-79
2020/12/06 07:05:06;;;;;;;74.88;35.80;;;;;;;;;;4860596;29;20079;-80
2020/12/06 07:08:03;;;;;;;76.68;36.67;;;;;;;;;;4905168;29;20044;-81
2020/12/06 07:10:48;;;;;;;73.65;35.28;;;;;;;;;;4907401;29;20160;-79
2020/12/06 07:13:31;;;;;;;86.55;39.53;;;;;;;;;;4892457;29;20059;-79
2020/12/06 07:16:12;;;;;;;90.82;40.15;;;;;;;;;;4889678;29;20558;-79
2020/12/06 07:19:06;;;;;;;;;;;;;;;;;;;;;
2020/12/06 07:21:41;;;;;;;82.28;37.53;;;;;;;;;;4908270;29;20412;-80
2020/12/06 07:24:35;;;;;;;82.40;36.60;;;;;;;;;;4892575;29;20484;-79
2020/12/06 07:27:59;;;;;;;82.97;36.78;;;;;;;;;;4882108;29;20133;-79
2020/12/06 07:30:58;;;;;;;85.63;39.20;;;;;;;;;;4879019;29;20089;-80
2020/12/06 07:33:39;;;;;;;92.18;41.35;;;;;;;;;;4936526;29;20043;-79
2020/12/06 07:37:06;;;;;;;92.03;42.08;;;;;;;;;;4918852;29;20058;-80
2020/12/06 07:40:06;;;;;;;96.25;43.67;;;;;;;;;;4991129;28;20038;-78
2020/12/06 07:42:44;;;;;;;84.40;39.58;;;;;;;;;;4995231;28;20056;-80
2020/12/06 07:45:13;;;;;;;90.65;41.55;;;;;;;;;;5010648;28;20926;-79
2020/12/06 07:47:40;;;;;;;88.25;41.35;;;;;;;;;;5003281;28;20048;-79
2020/12/06 07:50:06;;;;;;;99.55;43.42;;;;;;;;;;5002411;28;20058;-80
2020/12/06 07:52:39;;;;;;;96.22;44.60;;;;;;;;;;4992310;28;20521;-82
2020/12/06 07:55:06;;;;;;;97.43;43.88;;;;;;;;;;4994085;28;20185;-82
2020/12/06 07:57:37;;;;;;;96.93;44.22;;;;;;;;;;4993904;28;20052;-81
2020/12/06 08:00:14;;;;;;;92.72;43.95;;;;;;;;;;5011934;28;20046;-80
2020/12/06 08:02:59;;;;;;;91.30;43.47;;;;;;;;;;4992743;28;20131;-79
2020/12/06 08:05:33;;;;;;;88.18;41.33;;;;;;;;;;4998316;28;20111;-79
2020/12/06 08:08:48;;;;;;;90.13;41.43;;;;;;;;;;4995207;28;20045;-81
2020/12/06 08:11:50;;;;;;;85.75;40.80;;;;;;;;;;4996150;28;20295;-79
2020/12/06 08:14:33;;;;;;;;;;;;;;;;;;;;;
2020/12/06 08:17:51;;;;;;;80.38;39.20;;;;;;;;;;4950925;28;20061;-80
2020/12/06 08:21:07;;;;;;;66.85;33.85;;;;;;;;;;5019145;28;20050;-79
2020/12/06 08:24:00;;;;;;;69.50;34.85;;;;;;;;;;5018670;28;20033;-78
2020/12/06 08:26:47;;;;;;;69.05;35.65;;;;;;;;;;4994475;28;20038;-81
2020/12/06 08:30:03;;;;;;;67.95;35.63;;;;;;;;;;5011975;28;20034;-80
2020/12/06 08:33:00;;;;;;;57.35;31.73;;;;;;;;;;4970756;28;20046;-79
2020/12/06 08:35:38;;;;;;;57.50;30.95;;;;;;;;;;4974376;28;20043;-80
2020/12/06 08:38:22;;;;;;;62.03;32.42;;;;;;;;;;5011876;28;20169;-79
2020/12/06 08:41:06;;;;;;;60.03;31.77;;;;;;;;;;4996551;28;20589;-79
2020/12/06 08:44:20;;;;;;;58.75;32.65;;;;;;;;;;4995979;28;20124;-78
2020/12/06 08:47:00;;;;;;;65.75;35.20;;;;;;;;;;4917099;29;20044;-80
2020/12/06 08:49:44;;;;;;;66.05;34.60;;;;;;;;;;4928349;29;20032;-79
2020/12/06 08:52:34;;;;;;;64.05;33.22;;;;;;;;;;5016110;28;20056;-80
2020/12/06 08:56:08;;;;;;;61.13;33.78;;;;;;;;;;5042447;28;20046;-80
2020/12/06 08:59:12;;;;;;;61.20;33.00;;;;;;;;;;4966862;29;20043;-79
2020/12/06 09:05:48;;;;;;;59.15;31.23;;;;;;;;;;4972805;28;20042;-79
2020/12/06 09:08:46;;;;;;;;;;;;;;;;;;;;;
2020/12/06 09:11:39;;;;;;;62.03;32.92;;;;;;;;;;4961350;28;20293;-78
2020/12/06 09:14:28;;;;;;;64.63;32.53;;;;;;;;;;4949391;28;20066;-80
2020/12/06 09:17:28;;;;;;;66.32;32.47;;;;;;;;;;4956819;28;20051;-81
2020/12/06 09:20:07;;;;;;;62.58;32.75;;;;;;;;;;4929609;28;20068;-81
2020/12/06 09:23:08;;;;;;;61.90;33.13;;;;;;;;;;4926420;28;20048;-80
2020/12/06 09:26:12;;;;;;;66.78;34.38;;;;;;;;;;4960941;28;20043;-81
2020/12/06 09:28:54;;;;;;;65.15;33.95;;;;;;;;;;4925735;28;20419;-80
2020/12/06 09:31:24;;;;;;;60.08;31.80;;;;;;;;;;4955363;28;20115;-80
2020/12/06 09:34:16;;;;;;;57.35;30.98;;;;;;;;;;4955342;28;20594;-80
2020/12/06 09:36:56;;;;;;;57.53;31.35;;;;;;;;;;4989309;28;20054;-81
2020/12/06 09:39:42;;;;;;;62.15;31.02;;;;;;;;;;4986287;28;20141;-80
2020/12/06 09:42:14;;;;;;;63.58;32.53;;;;;;;;;;4979082;28;20046;-81
2020/12/06 09:45:21;;;;;;;65.47;33.58;;;;;;;;;;5010920;28;20056;-80
2020/12/06 09:48:10;;;;;;;61.95;33.15;;;;;;;;;;4981582;28;20048;-80
2020/12/06 09:50:43;;;;;;;60.70;32.42;;;;;;;;;;5016301;28;20433;-80
2020/12/06 09:53:35;;;;;;;58.92;31.25;;;;;;;;;;4977419;28;20062;-80
2020/12/06 09:56:09;;;;;;;63.00;33.03;;;;;;;;;;5011996;28;20046;-80
2020/12/06 09:58:50;;;;;;;63.85;34.15;;;;;;;;;;5019105;28;20600;-79
2020/12/06 10:02:06;;;;;;;54.40;30.17;;;;;;;;;;4998295;28;20726;-80
2020/12/06 10:05:25;;;;;;;53.92;29.40;;;;;;;;;;5004364;28;20516;-80
2020/12/06 10:08:29;;;;;;;42.47;24.08;;;;;;;;;;4975178;28;20053;-80
2020/12/06 10:11:03;;;;;;;41.40;23.63;;;;;;;;;;4971988;28;20413;-81
2020/12/06 10:13:41;;;;;;;38.47;22.25;;;;;;;;;;4996698;28;20068;-81
2020/12/06 10:16:25;;;;;;;37.58;22.20;;;;;;;;;;4980780;28;20382;-81
2020/12/06 10:19:19;;;;;;;39.35;19.58;;;;;;;;;;5012549;28;20137;-80
2020/12/06 10:21:58;;;;;;;32.50;19.10;;;;;;;;;;5010839;28;20048;-81
2020/12/06 10:24:39;;;;;;;28.50;17.48;;;;;;;;;;5028585;28;20140;-81
2020/12/06 10:27:26;;;;;;;24.92;16.05;;;;;;;;;;4982448;28;20064;-81
2020/12/06 10:33:37;;;;;;;24.63;15.07;;;;;;;;;;5008960;28;20037;-81
2020/12/06 10:38:56;;;;;;;27.48;14.93;;;;;;;;;;4995775;28;20034;-82
2020/12/06 10:41:41;;;;;;;;;;;;;;;;;;4940204;28;20047;-81
2020/12/06 10:44:41;;;;;;;31.33;15.13;;;;;;;;;;4968547;28;20006;-81
2020/12/06 10:47:40;;;;;;;26.50;15.02;;;;;;;;;;4943608;28;20427;-81
2020/12/06 10:50:57;;;;;;;23.15;14.65;;;;;;;;;;4943857;28;20047;-82
2020/12/06 10:54:05;;;;;;;26.45;15.52;;;;;;;;;;4940675;28;20153;-81
2020/12/06 11:00:47;;;;;;;28.25;15.30;;;;;;;;;;4891306;29;20645;-81
2020/12/06 11:03:54;;;;;;;24.55;15.68;;;;;;;;;;4875910;29;20044;-83
2020/12/06 11:06:46;;;;;;;23.17;14.35;;;;;;;;;;4893657;29;20052;-82
2020/12/06 11:09:26;;;;;;;24.70;14.18;;;;;;;;;;4894892;29;20154;-82
2020/12/06 11:12:03;;;;;;;26.38;14.68;;;;;;;;;;4905070;29;20047;-80
2020/12/06 11:14:38;;;;;;;24.33;15.00;;;;;;;;;;4920578;28;20066;-80
2020/12/06 11:17:49;;;;;;;24.77;13.48;;;;;;;;;;4926727;29;20047;-80
2020/12/06 11:20:35;;;;;;;23.52;13.40;;;;;;;;;;4951155;28;20483;-81
2020/12/06 11:23:07;;;;;;;22.95;12.60;;;;;;;;;;4950480;28;20057;-80
2020/12/06 11:25:53;;;;;;;22.77;13.30;;;;;;;;;;4925848;29;20334;-80
2020/12/06 11:29:11;;;;;;;20.40;11.98;;;;;;;;;;4948989;29;20051;-80
2020/12/06 11:32:18;;;;;;;18.38;11.95;;;;;;;;;;4986914;28;20046;-81
2020/12/06 11:35:10;;;;;;;22.13;12.43;;;;;;;;;;5011093;28;20038;-81
2020/12/06 11:38:12;;;;;;;19.80;11.85;;;;;;;;;;4993674;28;20502;-82
2020/12/06 11:41:00;;;;;;;20.83;11.52;;;;;;;;;;4991512;28;20494;-81
2020/12/06 11:43:49;;;;;;;20.42;11.25;;;;;;;;;;4977313;28;20223;-80
2020/12/06 11:46:47;;;;;;;20.88;11.52;;;;;;;;;;4970617;28;20042;-80
2020/12/06 11:49:28;;;;;;;18.70;11.30;;;;;;;;;;4991604;28;20050;-81
2020/12/06 11:53:11;;;;;;;21.77;11.82;;;;;;;;;;4996992;28;20041;-79
2020/12/06 11:56:13;;;;;;;19.98;11.50;;;;;;;;;;4909459;29;20074;-80
2020/12/06 11:58:57;;;;;;;21.45;12.05;;;;;;;;;;4955583;28;20666;-80
2020/12/06 12:05:39;;;;;;;21.30;11.40;;;;;;;;;;4897525;28;20052;-81
2020/12/06 12:08:51;;;;;;;18.02;10.68;;;;;;;;;;4890747;29;21520;-82
2020/12/06 12:11:32;;;;;;;20.88;11.60;;;;;;;;;;4875482;29;20345;-79
2020/12/06 12:14:42;;;;;;;;;;;;;;;;;;;;;
2020/12/06 12:17:11;;;;;;;19.10;11.60;;;;;;;;;;4895690;29;20040;-81
2020/12/06 12:19:52;;;;;;;22.88;11.13;;;;;;;;;;4896125;29;20064;-82
2020/12/06 12:22:59;;;;;;;22.63;12.35;;;;;;;;;;4852039;29;20049;-79
2020/12/06 12:29:17;;;;;;;20.75;11.73;;;;;;;;;;4788370;29;20050;-79
2020/12/06 12:32:38;;;;;;;21.02;11.70;;;;;;;;;;4749285;30;20052;-80
2020/12/06 12:35:59;;;;;;;21.55;11.52;;;;;;;;;;4758760;30;20064;-81
2020/12/06 12:42:34;;;;;;;20.30;11.43;;;;;;;;;;4836547;29;20109;-79
2020/12/06 12:46:18;;;;;;;;;;;;;;;;;;;;;
2020/12/06 12:49:50;;;;;;;21.02;11.75;;;;;;;;;;4839310;29;20058;-80
2020/12/06 12:52:49;;;;;;;22.08;12.07;;;;;;;;;;4817950;29;20069;-81
2020/12/06 12:55:58;;;;;;;25.85;12.25;;;;;;;;;;4840089;29;20046;-80
2020/12/06 12:59:35;;;;;;;19.73;11.93;;;;;;;;;;4845333;29;20044;-79
2020/12/06 13:02:59;;;;;;;20.85;12.07;;;;;;;;;;4858412;29;20048;-81
2020/12/06 13:06:23;;;;;;;19.98;12.02;;;;;;;;;;4888374;29;20075;-81
2020/12/06 13:09:48;;;;;;;;;;;;;;;;;;;;;
2020/12/06 13:13:02;;;;;;;;;;;;;;;;;;;;;
2020/12/06 13:16:32;;;;;;;;;;;;;;;;;;;;;
2020/12/06 13:20:00;;;;;;;;;;;;;;;;;;;;;
2020/12/06 13:23:42;;;;;;;35.90;18.80;;;;;;;;;;4843483;29;20608;-82
2020/12/06 13:30:39;;;;;;;19.02;11.05;;;;;;;;;;4803380;29;20506;-80
2020/12/06 13:33:41;;;;;;;20.80;11.48;;;;;;;;;;4776464;29;20066;-81
2020/12/06 13:36:55;;;;;;;21.23;11.82;;;;;;;;;;4735602;30;20136;-82
2020/12/06 13:39:58;;;;;;;22.30;13.13;;;;;;;;;;4720360;30;20250;-81
2020/12/06 13:43:32;;;;;;;24.20;12.10;;;;;;;;;;4696185;30;20522;-82
2020/12/06 13:46:33;;;;;;;21.13;13.38;;;;;;;;;;4701857;30;20511;-82
2020/12/06 13:49:58;;;;;;;26.85;14.30;;;;;;;;;;4742071;30;21624;-83
2020/12/06 13:56:38;;;;;;;26.00;14.82;;;;;;;;;;5021836;23;20106;-82
2020/12/06 14:03:29;;;;;;;30.27;16.20;;;;;;;;;;4923735;28;20046;-81
2020/12/06 14:06:43;;;;;;;24.77;13.68;;;;;;;;;;4937995;29;20035;-79
2020/12/06 14:09:46;;;;;;;23.25;13.38;;;;;;;;;;4969252;29;20148;-81
2020/12/06 14:13:04;;;;;;;24.48;13.60;;;;;;;;;;4933568;29;20047;-81
2020/12/06 14:16:11;;;;;;;;;;;;;;;;;;;;;
2020/12/06 14:19:16;;;;;;;24.48;14.57;;;;;;;;;;4967878;28;20543;-83
2020/12/06 14:22:36;;;;;;;27.55;14.55;;;;;;;;;;4958166;29;20050;-81
2020/12/06 14:29:21;;;;;;;33.63;17.17;;;;;;;;;;4958937;29;20039;-81
2020/12/06 14:32:35;;;;;;;;;;;;;;;;;;;;;
2020/12/06 14:35:49;;;;;;;;;;;;;;;;;;;;;
2020/12/06 14:42:17;;;;;;;28.23;17.40;;;;;;;;;;4891930;29;20045;-81
2020/12/06 14:45:28;;;;;;;;;;;;;;;;;;;;;
2020/12/06 14:48:06;;;;;;;26.10;15.70;;;;;;;;;;4920425;29;20044;-81
2020/12/06 14:54:18;;;;;;;28.38;16.50;;;;;;;;;;4918196;29;20040;-81
2020/12/06 15:00:22;;;;;;;28.92;16.60;;;;;;;;;;4897195;29;20123;-81
2020/12/06 15:03:43;;;;;;;;;;;;;;;;;;;;;
2020/12/06 15:06:40;;;;;;;29.73;16.17;;;;;;;;;;4900685;29;20044;-81
2020/12/06 15:10:21;;;;;;;;;;;;;;;;;;;;;
2020/12/06 15:13:16;;;;;;;39.47;19.88;;;;;;;;;;4960167;28;20046;-81
2020/12/06 15:16:12;;;;;;;60.17;30.73;;;;;;;;;;5149845;23;20109;-82
2020/12/06 15:19:19;;;;;;;55.42;28.98;;;;;;;;;;4985489;28;20069;-82
2020/12/06 15:22:22;;;;;;;52.92;27.33;;;;;;;;;;4985187;28;20050;-81
2020/12/06 15:25:13;;;;;;;44.50;24.60;;;;;;;;;;4981245;28;20490;-81
2020/12/06 15:28:31;;;;;;;48.50;24.65;;;;;;;;;;4998337;28;20149;-81
2020/12/06 15:31:34;;;;;;;48.42;24.13;;;;;;;;;;4997155;28;20081;-81
2020/12/06 15:38:20;;;;;;;46.60;23.00;;;;;;;;;;4985728;28;20070;-77
2020/12/06 15:41:12;;;;;;;49.05;23.90;;;;;;;;;;4987488;28;20653;-82
2020/12/06 15:43:49;;;;;;;45.97;24.13;;;;;;;;;;4986560;28;20043;-81
2020/12/06 15:46:31;;;;;;;49.40;24.30;;;;;;;;;;4961078;28;20050;-82
2020/12/06 15:49:30;;;;;;;43.97;22.70;;;;;;;;;;4982023;28;20494;-80
2020/12/06 15:52:04;;;;;;;50.22;25.52;;;;;;;;;;4990842;28;20046;-79
2020/12/06 15:54:57;;;;;;;62.90;30.38;;;;;;;;;;4971607;28;20543;-80
2020/12/06 15:57:47;;;;;;;55.30;28.88;;;;;;;;;;4979737;28;20089;-79
2020/12/06 16:00:43;;;;;;;46.83;24.58;;;;;;;;;;4989604;28;20110;-82
2020/12/06 16:03:31;;;;;;;55.58;29.20;;;;;;;;;;4963583;28;20125;-80
2020/12/06 16:06:13;;;;;;;74.57;39.60;;;;;;;;;;5093692;23;20043;-83
2020/12/06 16:12:35;;;;;;;46.63;25.77;;;;;;;;;;4961590;28;20041;-80
2020/12/06 16:15:53;;;;;;;76.15;39.22;;;;;;;;;;4974593;28;20039;-82
2020/12/06 16:18:44;;;;;;;49.22;25.50;;;;;;;;;;4994683;28;20057;-82
2020/12/06 16:21:49;;;;;;;44.42;24.35;;;;;;;;;;5003310;28;20126;-81
2020/12/06 16:25:04;;;;;;;45.70;24.02;;;;;;;;;;4997199;28;20078;-81
2020/12/06 16:27:56;;;;;;;49.55;25.70;;;;;;;;;;4985639;28;20043;-80
2020/12/06 16:30:59;;;;;;;41.83;22.98;;;;;;;;;;4985861;28;20073;-81
2020/12/06 16:33:31;;;;;;;;;;;;;;;;;;4988561;28;20050;-80
2020/12/06 16:36:07;;;;;;;57.13;30.38;;;;;;;;;;5010928;28;19925;-81
2020/12/06 16:38:57;;;;;;;54.60;28.33;;;;;;;;;;4981528;28;20116;-80
2020/12/06 16:41:36;;;;;;;51.00;27.83;;;;;;;;;;5001292;28;20038;-81
2020/12/06 16:44:04;;;;;;;44.22;24.70;;;;;;;;;;5023272;28;20058;-80
2020/12/06 16:46:42;;;;;;;48.95;26.35;;;;;;;;;;5020695;28;20084;-81
2020/12/06 16:49:34;;;;;;;45.42;25.95;;;;;;;;;;5003314;28;20042;-83
2020/12/06 16:52:10;;;;;;;42.80;24.58;;;;;;;;;;4999887;28;20150;-79
2020/12/06 16:55:03;;;;;;;42.00;24.65;;;;;;;;;;5018269;28;20054;-79
2020/12/06 16:57:53;;;;;;;36.80;19.73;;;;;;;;;;5019266;28;20576;-80
2020/12/06 17:00:33;;;;;;;42.35;21.55;;;;;;;;;;4999247;28;20101;-80
2020/12/06 17:03:17;;;;;;;42.85;23.20;;;;;;;;;;4978733;28;20136;-79
2020/12/06 17:06:02;;;;;;;41.08;22.55;;;;;;;;;;4978634;28;20047;-79
2020/12/06 17:08:36;;;;;;;45.92;24.55;;;;;;;;;;5000945;28;20069;-81
2020/12/06 17:11:08;;;;;;;49.15;27.30;;;;;;;;;;4976194;28;20486;-79
2020/12/06 17:13:55;;;;;;;49.63;27.70;;;;;;;;;;4977419;28;20046;-79
2020/12/06 17:16:31;;;;;;;38.53;23.52;;;;;;;;;;5015306;28;20030;-80
2020/12/06 17:19:09;;;;;;;34.95;21.27;;;;;;;;;;4969439;28;20120;-81
2020/12/06 17:22:02;;;;;;;38.00;23.27;;;;;;;;;;4988089;28;20057;-81
2020/12/06 17:24:38;;;;;;;40.75;21.52;;;;;;;;;;4985172;28;20050;-82
2020/12/06 17:27:15;;;;;;;39.28;22.23;;;;;;;;;;5006256;28;20047;-80
2020/12/06 17:29:53;;;;;;;66.40;35.50;;;;;;;;;;5001786;28;20077;-82
2020/12/06 17:32:32;;;;;;;69.85;35.72;;;;;;;;;;5014723;28;20042;-82
2020/12/06 17:35:43;;;;;;;34.63;20.63;;;;;;;;;;5024590;28;20076;-82
2020/12/06 17:38:13;;;;;;;35.72;21.02;;;;;;;;;;4984047;28;20050;-81
2020/12/06 17:40:45;;;;;;;33.15;20.55;;;;;;;;;;4984402;28;20042;-81
2020/12/06 17:43:18;;;;;;;35.25;20.02;;;;;;;;;;5005098;28;20288;-81